Saturday, December 15, 2018, 1:30 PM EST
Back to Local

KPNE, N.e. Philadelphia Airport

Location: Philadelphia, PA, United States Lat: 40.083
Local Time: 1:30 PM EST (18:30 GMT) Lon: -75.017
Time Zone: US/Eastern Elev: 121 ft

Show me the last for .
Show Decoded

2018-12-15 13:13 METAR KPNE 151813Z 04010KT 4SM BR OVC005 11/09 A3010 RMK AO2 T01110089 =
2018-12-15 13:04 METAR KPNE 151804Z 04008KT 2 1/2SM BR OVC005 11/09 A3010 RMK AO2 T01110089 =
2018-12-15 12:54 METAR KPNE 151754Z 04007KT 1 3/4SM BR OVC005 11/09 A3010 RMK AO2 RAB40E49 SLP191
                 P0001 60001 T01060089 10111 20100 56008 =
2018-12-15 12:43 METAR KPNE 151743Z 05007KT 1 1/4SM -RA BR OVC004 11/09 A3010 RMK AO2 RAB40 P0001
                 T01110089 =
2018-12-15 12:33 METAR KPNE 151733Z 05008KT 2SM BR OVC004 11/09 A3010 RMK AO2 T01060089 =
2018-12-15 11:54 METAR KPNE 151654Z 04010KT 1 1/4SM BR OVC003 11/09 A3010 RMK AO2 SLP192
                 T01060089 =
2018-12-15 10:54 METAR KPNE 151554Z 04009KT 1 3/4SM BR OVC003 11/09 A3012 RMK AO2 SLP199
                 T01110094 =
2018-12-15 10:39 METAR KPNE 151539Z 04009KT 2 1/2SM BR OVC003 11/09 A3013 RMK AO2 T01110094 =
2018-12-15 10:18 METAR KPNE 151518Z 03010KT 3SM BR OVC003 11/09 A3014 RMK AO2 T01110094 =
2018-12-15 09:54 METAR KPNE 151454Z 06007KT 2SM BR OVC004 11/09 A3014 RMK AO2 SLP205 T01110094
                 50004 =
2018-12-15 09:37 METAR KPNE 151437Z 05009KT 2 1/2SM BR OVC003 11/09 A3014 RMK AO2 T01060089 =
2018-12-15 08:54 METAR KPNE 151354Z 03012KT 1SM BR OVC002 10/08 A3014 RMK AO2 SLP207 T01000083
                 RVRNO =
2018-12-15 08:37 METAR KPNE 151337Z 03010KT 3/4SM BR OVC002 10/08 A3015 RMK AO2 T01000083 RVRNO =
2018-12-15 08:14 METAR KPNE 151314Z 04009KT 1 1/4SM BR OVC002 10/08 A3013 RMK AO2 T01000083 =
2018-12-15 07:54 METAR KPNE 151254Z 05009KT 1/2SM FG OVC002 10/08 A3013 RMK AO2 SLP201 T01000083
                 RVRNO =
2018-12-15 07:11 METAR KPNE 151211Z 03008KT 1 1/2SM BR OVC002 10/08 A3014 RMK AO2 T01000083 =
2018-12-15 06:54 METAR KPNE 151154Z 03009KT 1/2SM FG VV002 10/08 A3014 RMK AO2 SLP206 60004 70013
                 T01000078 10100 20100 56017 RVRNO =
2018-12-15 05:54 METAR KPNE 151054Z AUTO 04004KT 1/2SM FG VV002 10/08 A3016 RMK AO2 RAB0956E18
                 SLP211 P0001 T01000083 RVRNO =
2018-12-15 05:46 METAR KPNE 151046Z AUTO 05003KT 3/4SM BR VV002 10/08 A3016 RMK AO2 RAB0956E18
                 P0001 T01000083 RVRNO =
2018-12-15 04:54 METAR KPNE 150954Z AUTO 06004KT 1 1/2SM BR OVC002 10/08 A3017 RMK AO2 SLP216
                 T01000083 =
2018-12-15 04:19 METAR KPNE 150919Z AUTO 03006KT 2SM BR OVC002 10/08 A3018 RMK AO2 T01000083 =
2018-12-15 04:10 METAR KPNE 150910Z AUTO 04006KT 1 3/4SM BR OVC003 10/08 A3018 RMK AO2 T01000083
                 =
2018-12-15 03:54 METAR KPNE 150854Z AUTO 04005KT 2SM BR OVC003 10/08 A3019 RMK AO2 RAE16 SLP223
                 P0000 60003 T01000078 58012 =
2018-12-15 03:45 METAR KPNE 150845Z AUTO 06004KT 2 1/2SM BR OVC003 10/08 A3019 RMK AO2 RAE16
                 P0000 T01000083 =
2018-12-15 03:06 METAR KPNE 150806Z AUTO 04004KT 3SM -RA BR OVC004 10/08 A3021 RMK AO2 P0000
                 T01000083 =
2018-12-15 02:54 METAR KPNE 150754Z AUTO 03005KT 3SM -RA BR OVC005 10/08 A3022 RMK AO2 SLP232
                 P0002 T01000083 =
2018-12-15 01:54 METAR KPNE 150654Z AUTO 06003KT 3SM -RA BR OVC007 10/08 A3022 RMK AO2 SLP232
                 P0001 T01000083 =
2018-12-15 01:31 METAR KPNE 150631Z AUTO 04004KT 3SM -RA BR OVC008 10/08 A3022 RMK AO2 P0001
                 T01000083 =
2018-12-15 01:21 METAR KPNE 150621Z AUTO 02004KT 2 1/2SM -RA BR SCT003 OVC008 10/08 A3022 RMK AO2
                 P0001 T01000083 =
2018-12-15 00:54 METAR KPNE 150554Z AUTO 04003KT 2 1/2SM -RA BR OVC002 10/08 A3022 RMK AO2
                 RAE23B41 SLP234 P0001 60009 T01000083 10100 20094 58014 =
2018-12-15 00:17 METAR KPNE 150517Z AUTO 04005KT 2 1/2SM -RA BR BKN002 OVC009 10/08 A3023 RMK AO2
                 CIG 002V007 P0000 T01000078 =
2018-12-14 23:54 METAR KPNE 150454Z AUTO 05004KT 3SM -RA BR BKN002 BKN009 OVC036 10/08 A3024 RMK
                 AO2 SLP239 P0003 T01000083 401220033 =
2018-12-14 23:47 METAR KPNE 150447Z AUTO 06004KT 3SM -RA BR BKN002 OVC036 10/08 A3024 RMK AO2
                 P0002 T01000083 =
2018-12-14 22:54 METAR KPNE 150354Z AUTO 05004KT 3SM -RA BR SCT004 BKN021 OVC030 10/08 A3026 RMK
                 AO2 SLP248 P0002 T01000078 =
2018-12-14 22:52 METAR KPNE 150352Z AUTO 05004KT 3SM -RA BR SCT004 BKN027 OVC033 10/08 A3027 RMK
                 AO2 P0002 =
2018-12-14 22:22 METAR KPNE 150322Z 04004KT 3SM -RA BR FEW009 BKN033 OVC070 09/08 A3028 RMK AO2
                 P0001 T00940078 =
2018-12-14 22:14 METAR KPNE 150314Z 04003KT 2 1/2SM -RA BR FEW017 BKN050 OVC075 09/08 A3028 RMK
                 AO2 P0001 T00940078 =
2018-12-14 21:54 METAR KPNE 150254Z 00000KT 3SM -RA BR SCT050 OVC080 09/08 A3029 RMK AO2 SLP257
                 P0002 60003 T00940078 58018 =
2018-12-14 20:54 METAR KPNE 150154Z 00000KT 6SM -RA BR SCT060 OVC080 10/08 A3031 RMK AO2 RAB30
                 SLP266 P0001 T01000083 =
2018-12-14 19:54 METAR KPNE 150054Z 00000KT 8SM OVC090 10/08 A3032 RMK AO2 SLP268 T01000078 =
2018-12-14 18:54 METAR KPNE 142354Z 00000KT 9SM OVC090 10/08 A3034 RMK AO2 SLP275 60000 T01000078
                 10122 20094 58002 =
2018-12-14 17:54 METAR KPNE 142254Z 00000KT 10SM FEW080 OVC100 11/08 A3035 RMK AO2 RAE21 SLP277
                 P0000 T01060078 =
2018-12-14 16:54 METAR KPNE 142154Z 00000KT 10SM -RA BKN080 OVC100 11/08 A3035 RMK AO2 RAB54
                 SLP278 P0000 T01110078 =
2018-12-14 15:54 METAR KPNE 142054Z 13003KT 10SM BKN090 BKN100 11/08 A3035 RMK AO2 SLP277
                 T01110078 56011 =
2018-12-14 14:54 METAR KPNE 141954Z 14004KT 10SM OVC070 12/08 A3035 RMK AO2 SLP278 T01170078 =
2018-12-14 13:54 METAR KPNE 141854Z 12005KT 10SM FEW017 BKN037 OVC070 12/08 A3037 RMK AO2 SLP284
                 T01170078 =
2018-12-14 13:44 METAR KPNE 141844Z 00000KT 10SM SCT015 OVC037 12/08 A3037 RMK AO2 T01170078 =
2018-12-14 13:34 METAR KPNE 141834Z 12004KT 10SM BKN015 OVC037 12/08 A3037 RMK AO2 T01170078 =

Support USWX by starting your Amazon purchase here.